sensor_id;sensor_type;location;lat;lon;timestamp;P1;durP1;ratioP1;P2;durP2;ratioP2
16029;SDS011;34770;49.272;11.070;2022-09-09T00:57:16;4.28;;;1.90;;
16029;SDS011;34770;49.272;11.070;2022-09-09T00:59:52;2.67;;;1.92;;
16029;SDS011;34770;49.272;11.070;2022-09-09T01:03:19;3.72;;;1.98;;
16029;SDS011;34770;49.272;11.070;2022-09-09T03:40:52;3.30;;;2.38;;
16029;SDS011;34770;49.272;11.070;2022-09-09T03:43:25;2.55;;;1.60;;
16029;SDS011;34770;49.272;11.070;2022-09-09T03:45:57;2.10;;;2.00;;
16029;SDS011;34770;49.272;11.070;2022-09-09T03:48:24;3.83;;;2.08;;
16029;SDS011;34770;49.272;11.070;2022-09-09T03:50:53;3.25;;;2.45;;
16029;SDS011;34770;49.272;11.070;2022-09-09T03:56:32;3.30;;;1.98;;
16029;SDS011;34770;49.272;11.070;2022-09-09T03:59:02;7.68;;;2.40;;
16029;SDS011;34770;49.272;11.070;2022-09-09T04:01:29;4.32;;;2.15;;
16029;SDS011;34770;49.272;11.070;2022-09-09T04:03:56;2.92;;;1.73;;
16029;SDS011;34770;49.272;11.070;2022-09-09T04:06:23;4.68;;;2.20;;
16029;SDS011;34770;49.272;11.070;2022-09-09T04:08:51;1.88;;;1.77;;
16029;SDS011;34770;49.272;11.070;2022-09-09T04:11:17;4.97;;;1.95;;
16029;SDS011;34770;49.272;11.070;2022-09-09T04:13:45;6.80;;;2.42;;
16029;SDS011;34770;49.272;11.070;2022-09-09T04:16:15;1.90;;;1.70;;
16029;SDS011;34770;49.272;11.070;2022-09-09T04:18:41;2.60;;;1.85;;
16029;SDS011;34770;49.272;11.070;2022-09-09T04:21:09;7.50;;;2.47;;
16029;SDS011;34770;49.272;11.070;2022-09-09T05:21:41;3.65;;;2.13;;
16029;SDS011;34770;49.272;11.070;2022-09-09T05:24:07;2.45;;;2.15;;
16029;SDS011;34770;49.272;11.070;2022-09-09T05:26:33;3.25;;;2.33;;
16029;SDS011;34770;49.272;11.070;2022-09-09T05:28:59;2.75;;;2.40;;
16029;SDS011;34770;49.272;11.070;2022-09-09T05:31:26;3.33;;;3.03;;
16029;SDS011;34770;49.272;11.070;2022-09-09T05:36:31;6.65;;;3.50;;
16029;SDS011;34770;49.272;11.070;2022-09-09T05:38:57;5.43;;;2.85;;
16029;SDS011;34770;49.272;11.070;2022-09-09T05:41:26;3.53;;;3.13;;
16029;SDS011;34770;49.272;11.070;2022-09-09T05:43:55;4.43;;;2.85;;
16029;SDS011;34770;49.272;11.070;2022-09-09T05:46:22;7.78;;;2.83;;
16029;SDS011;34770;49.272;11.070;2022-09-09T05:56:35;2.90;;;2.50;;
16029;SDS011;34770;49.272;11.070;2022-09-09T05:59:01;3.53;;;2.00;;
16029;SDS011;34770;49.272;11.070;2022-09-09T06:01:31;2.10;;;1.90;;
16029;SDS011;34770;49.272;11.070;2022-09-09T06:03:58;2.67;;;1.75;;
16029;SDS011;34770;49.272;11.070;2022-09-09T06:06:31;2.42;;;2.22;;
16029;SDS011;34770;49.272;11.070;2022-09-09T06:09:05;3.10;;;2.03;;
16029;SDS011;34770;49.272;11.070;2022-09-09T06:11:34;3.88;;;1.95;;
16029;SDS011;34770;49.272;11.070;2022-09-09T06:14:01;5.15;;;1.92;;
16029;SDS011;34770;49.272;11.070;2022-09-09T06:16:27;7.38;;;5.85;;
16029;SDS011;34770;49.272;11.070;2022-09-09T06:18:53;6.95;;;5.88;;
16029;SDS011;34770;49.272;11.070;2022-09-09T06:21:21;7.13;;;6.40;;
16029;SDS011;34770;49.272;11.070;2022-09-09T06:23:55;7.63;;;5.43;;
16029;SDS011;34770;49.272;11.070;2022-09-09T06:26:21;6.22;;;5.65;;
16029;SDS011;34770;49.272;11.070;2022-09-09T06:28:49;4.53;;;3.80;;
16029;SDS011;34770;49.272;11.070;2022-09-09T06:31:18;6.63;;;4.03;;
16029;SDS011;34770;49.272;11.070;2022-09-09T06:33:51;5.15;;;3.42;;
16029;SDS011;34770;49.272;11.070;2022-09-09T06:36:19;4.68;;;3.00;;
16029;SDS011;34770;49.272;11.070;2022-09-09T06:38:45;5.03;;;2.47;;
16029;SDS011;34770;49.272;11.070;2022-09-09T06:41:12;2.47;;;2.22;;
16029;SDS011;34770;49.272;11.070;2022-09-09T06:43:39;2.80;;;2.10;;
16029;SDS011;34770;49.272;11.070;2022-09-09T06:48:33;2.90;;;1.90;;
16029;SDS011;34770;49.272;11.070;2022-09-09T06:51:03;4.38;;;2.47;;
16029;SDS011;34770;49.272;11.070;2022-09-09T06:53:33;2.90;;;1.92;;
16029;SDS011;34770;49.272;11.070;2022-09-09T06:56:13;4.78;;;2.00;;
16029;SDS011;34770;49.272;11.070;2022-09-09T06:58:44;3.67;;;2.28;;
16029;SDS011;34770;49.272;11.070;2022-09-09T07:01:11;6.30;;;2.38;;
16029;SDS011;34770;49.272;11.070;2022-09-09T07:03:38;3.63;;;1.80;;
16029;SDS011;34770;49.272;11.070;2022-09-09T07:06:04;3.83;;;1.90;;
16029;SDS011;34770;49.272;11.070;2022-09-09T07:08:31;1.88;;;1.60;;
16029;SDS011;34770;49.272;11.070;2022-09-09T07:11:03;3.95;;;2.35;;
16029;SDS011;34770;49.272;11.070;2022-09-09T07:13:30;2.72;;;1.80;;
16029;SDS011;34770;49.272;11.070;2022-09-09T07:16:02;3.55;;;1.83;;
16029;SDS011;34770;49.272;11.070;2022-09-09T07:18:31;4.03;;;1.95;;
16029;SDS011;34770;49.272;11.070;2022-09-09T07:20:58;2.10;;;1.90;;
16029;SDS011;34770;49.272;11.070;2022-09-09T07:23:24;2.63;;;1.80;;
16029;SDS011;34770;49.272;11.070;2022-09-09T07:25:50;2.63;;;2.13;;
16029;SDS011;34770;49.272;11.070;2022-09-09T07:28:16;4.05;;;1.70;;
16029;SDS011;34770;49.272;11.070;2022-09-09T07:30:42;3.70;;;2.17;;
16029;SDS011;34770;49.272;11.070;2022-09-09T07:33:08;2.83;;;1.65;;
16029;SDS011;34770;49.272;11.070;2022-09-09T07:35:34;5.35;;;1.85;;
16029;SDS011;34770;49.272;11.070;2022-09-09T07:38:01;4.20;;;1.38;;
16029;SDS011;34770;49.272;11.070;2022-09-09T07:40:28;3.58;;;1.20;;
16029;SDS011;34770;49.272;11.070;2022-09-09T07:42:54;3.03;;;1.58;;
16029;SDS011;34770;49.272;11.070;2022-09-09T07:45:19;3.33;;;1.60;;
16029;SDS011;34770;49.272;11.070;2022-09-09T07:47:44;1.80;;;1.65;;
16029;SDS011;34770;49.272;11.070;2022-09-09T07:50:10;4.30;;;1.90;;
16029;SDS011;34770;49.272;11.070;2022-09-09T07:52:35;3.85;;;1.90;;
16029;SDS011;34770;49.272;11.070;2022-09-09T07:55:02;4.20;;;1.70;;
16029;SDS011;34770;49.272;11.070;2022-09-09T07:57:28;1.65;;;1.38;;
16029;SDS011;34770;49.272;11.070;2022-09-09T07:59:55;2.42;;;1.70;;
16029;SDS011;34770;49.272;11.070;2022-09-09T08:02:22;3.13;;;1.60;;
16029;SDS011;34770;49.272;11.070;2022-09-09T08:04:48;3.65;;;1.92;;
16029;SDS011;34770;49.272;11.070;2022-09-09T08:07:13;6.38;;;1.77;;
16029;SDS011;34770;49.272;11.070;2022-09-09T08:09:39;3.83;;;1.58;;
16029;SDS011;34770;49.272;11.070;2022-09-09T08:12:04;3.97;;;1.67;;
16029;SDS011;34770;49.272;11.070;2022-09-09T08:14:32;2.88;;;1.60;;
16029;SDS011;34770;49.272;11.070;2022-09-09T08:16:57;1.80;;;1.23;;
16029;SDS011;34770;49.272;11.070;2022-09-09T08:19:23;3.85;;;1.55;;
16029;SDS011;34770;49.272;11.070;2022-09-09T08:21:48;4.05;;;1.33;;
16029;SDS011;34770;49.272;11.070;2022-09-09T08:24:14;4.38;;;1.25;;
16029;SDS011;34770;49.272;11.070;2022-09-09T08:26:44;3.47;;;1.13;;
16029;SDS011;34770;49.272;11.070;2022-09-09T08:29:11;1.42;;;1.20;;
16029;SDS011;34770;49.272;11.070;2022-09-09T08:31:48;5.18;;;1.50;;
16029;SDS011;34770;49.272;11.070;2022-09-09T08:34:16;1.95;;;1.33;;
16029;SDS011;34770;49.272;11.070;2022-09-09T08:36:46;2.72;;;1.27;;
16029;SDS011;34770;49.272;11.070;2022-09-09T08:39:14;2.03;;;1.20;;
16029;SDS011;34770;49.272;11.070;2022-09-09T08:41:53;4.28;;;1.13;;
16029;SDS011;34770;49.272;11.070;2022-09-09T08:52:28;1.88;;;1.05;;
16029;SDS011;34770;49.272;11.070;2022-09-09T08:54:59;3.40;;;1.40;;
16029;SDS011;34770;49.272;11.070;2022-09-09T08:57:37;1.73;;;1.05;;
16029;SDS011;34770;49.272;11.070;2022-09-09T09:00:04;2.95;;;1.17;;
16029;SDS011;34770;49.272;11.070;2022-09-09T09:07:55;1.92;;;0.90;;
16029;SDS011;34770;49.272;11.070;2022-09-09T09:12:57;2.17;;;1.00;;
16029;SDS011;34770;49.272;11.070;2022-09-09T09:15:24;1.92;;;1.00;;
16029;SDS011;34770;49.272;11.070;2022-09-09T09:17:55;1.90;;;0.95;;
16029;SDS011;34770;49.272;11.070;2022-09-09T09:20:23;2.63;;;0.90;;
16029;SDS011;34770;49.272;11.070;2022-09-09T09:23:00;4.10;;;1.05;;
16029;SDS011;34770;49.272;11.070;2022-09-09T09:25:34;2.08;;;1.10;;
16029;SDS011;34770;49.272;11.070;2022-09-09T09:28:12;3.22;;;0.95;;
16029;SDS011;34770;49.272;11.070;2022-09-09T09:30:45;2.55;;;1.13;;
16029;SDS011;34770;49.272;11.070;2022-09-09T09:33:21;2.25;;;1.02;;
16029;SDS011;34770;49.272;11.070;2022-09-09T09:35:53;6.57;;;0.80;;
16029;SDS011;34770;49.272;11.070;2022-09-09T09:38:25;1.33;;;0.80;;
16029;SDS011;34770;49.272;11.070;2022-09-09T09:40:53;1.58;;;1.08;;
16029;SDS011;34770;49.272;11.070;2022-09-09T09:43:36;1.95;;;0.85;;
16029;SDS011;34770;49.272;11.070;2022-09-09T09:46:05;1.48;;;0.75;;
16029;SDS011;34770;49.272;11.070;2022-09-09T09:48:42;1.27;;;0.77;;
16029;SDS011;34770;49.272;11.070;2022-09-09T09:51:08;2.22;;;1.10;;
16029;SDS011;34770;49.272;11.070;2022-09-09T09:53:38;2.90;;;0.95;;
16029;SDS011;34770;49.272;11.070;2022-09-09T09:56:05;2.33;;;0.90;;
16029;SDS011;34770;49.272;11.070;2022-09-09T09:58:33;4.20;;;1.05;;
16029;SDS011;34770;49.272;11.070;2022-09-09T10:01:04;3.70;;;1.00;;
16029;SDS011;34770;49.272;11.070;2022-09-09T10:03:30;3.13;;;0.90;;
16029;SDS011;34770;49.272;11.070;2022-09-09T10:05:58;3.15;;;0.82;;
16029;SDS011;34770;49.272;11.070;2022-09-09T10:08:24;1.08;;;0.80;;
16029;SDS011;34770;49.272;11.070;2022-09-09T10:13:47;1.27;;;0.65;;
16029;SDS011;34770;49.272;11.070;2022-09-09T10:19:03;1.95;;;1.10;;
16029;SDS011;34770;49.272;11.070;2022-09-09T10:27:18;13.05;;;5.13;;
16029;SDS011;34770;49.272;11.070;2022-09-09T10:30:11;2.55;;;1.00;;
16029;SDS011;34770;49.272;11.070;2022-09-09T10:38:29;1.92;;;0.63;;
16029;SDS011;34770;49.272;11.070;2022-09-09T10:44:17;1.45;;;0.90;;
16029;SDS011;34770;49.272;11.070;2022-09-09T10:49:33;2.80;;;1.00;;
16029;SDS011;34770;49.272;11.070;2022-09-09T10:57:40;3.80;;;1.20;;
16029;SDS011;34770;49.272;11.070;2022-09-09T11:00:18;0.90;;;0.68;;
16029;SDS011;34770;49.272;11.070;2022-09-09T11:02:59;1.58;;;0.73;;
16029;SDS011;34770;49.272;11.070;2022-09-09T11:08:30;1.08;;;0.73;;
16029;SDS011;34770;49.272;11.070;2022-09-09T11:16:02;1.83;;;0.90;;
16029;SDS011;34770;49.272;11.070;2022-09-09T11:18:48;3.70;;;1.13;;
16029;SDS011;34770;49.272;11.070;2022-09-09T11:21:17;1.15;;;0.75;;
16029;SDS011;34770;49.272;11.070;2022-09-09T11:24:31;3.35;;;1.08;;
16029;SDS011;34770;49.272;11.070;2022-09-09T11:41:11;2.80;;;0.82;;
16029;SDS011;34770;49.272;11.070;2022-09-09T11:46:08;2.72;;;1.13;;
16029;SDS011;34770;49.272;11.070;2022-09-09T11:51:26;3.58;;;1.20;;
16029;SDS011;34770;49.272;11.070;2022-09-09T11:53:54;1.65;;;0.85;;
16029;SDS011;34770;49.272;11.070;2022-09-09T11:56:32;2.10;;;0.90;;
16029;SDS011;34770;49.272;11.070;2022-09-09T11:59:19;3.40;;;1.10;;
16029;SDS011;34770;49.272;11.070;2022-09-09T12:02:00;2.47;;;0.82;;
16029;SDS011;34770;49.272;11.070;2022-09-09T12:04:29;4.10;;;1.08;;
16029;SDS011;34770;49.272;11.070;2022-09-09T12:06:59;2.70;;;1.50;;
16029;SDS011;34770;49.272;11.070;2022-09-09T12:19:41;3.55;;;1.05;;
16029;SDS011;34770;49.272;11.070;2022-09-09T12:22:23;2.28;;;0.60;;
16029;SDS011;34770;49.272;11.070;2022-09-09T12:27:46;3.08;;;1.10;;
16029;SDS011;34770;49.272;11.070;2022-09-09T12:30:31;3.33;;;0.80;;
16029;SDS011;34770;49.272;11.070;2022-09-09T12:33:08;2.45;;;0.90;;
16029;SDS011;34770;49.272;11.070;2022-09-09T12:35:41;3.65;;;1.20;;
16029;SDS011;34770;49.272;11.070;2022-09-09T12:38:11;5.35;;;1.20;;
16029;SDS011;34770;49.272;11.070;2022-09-09T12:40:53;0.93;;;0.90;;
16029;SDS011;34770;49.272;11.070;2022-09-09T12:43:21;10.25;;;2.92;;
16029;SDS011;34770;49.272;11.070;2022-09-09T12:45:48;6.75;;;1.60;;
16029;SDS011;34770;49.272;11.070;2022-09-09T12:48:21;4.57;;;1.67;;
16029;SDS011;34770;49.272;11.070;2022-09-09T12:50:52;3.78;;;1.60;;
16029;SDS011;34770;49.272;11.070;2022-09-09T12:55:56;12.00;;;1.70;;
16029;SDS011;34770;49.272;11.070;2022-09-09T12:58:23;6.22;;;2.00;;
16029;SDS011;34770;49.272;11.070;2022-09-09T13:00:53;7.18;;;1.40;;
16029;SDS011;34770;49.272;11.070;2022-09-09T13:03:23;1.95;;;1.08;;
16029;SDS011;34770;49.272;11.070;2022-09-09T13:05:50;3.13;;;0.90;;
16029;SDS011;34770;49.272;11.070;2022-09-09T13:08:16;2.53;;;1.55;;
16029;SDS011;34770;49.272;11.070;2022-09-09T13:10:56;2.88;;;1.30;;
16029;SDS011;34770;49.272;11.070;2022-09-09T13:13:29;3.20;;;1.08;;
16029;SDS011;34770;49.272;11.070;2022-09-09T13:15:59;3.95;;;1.05;;
16029;SDS011;34770;49.272;11.070;2022-09-09T13:18:30;2.50;;;0.93;;
16029;SDS011;34770;49.272;11.070;2022-09-09T13:20:58;3.28;;;0.85;;
16029;SDS011;34770;49.272;11.070;2022-09-09T13:23:31;2.25;;;1.05;;
16029;SDS011;34770;49.272;11.070;2022-09-09T13:26:01;1.92;;;1.00;;
16029;SDS011;34770;49.272;11.070;2022-09-09T13:28:46;3.72;;;0.93;;
16029;SDS011;34770;49.272;11.070;2022-09-09T13:31:23;9.15;;;1.10;;
16029;SDS011;34770;49.272;11.070;2022-09-09T13:33:54;3.75;;;1.05;;
16029;SDS011;34770;49.272;11.070;2022-09-09T13:36:29;2.65;;;1.17;;
16029;SDS011;34770;49.272;11.070;2022-09-09T13:38:57;3.85;;;0.90;;
16029;SDS011;34770;49.272;11.070;2022-09-09T13:41:34;5.05;;;1.05;;
16029;SDS011;34770;49.272;11.070;2022-09-09T13:44:02;1.80;;;1.00;;
16029;SDS011;34770;49.272;11.070;2022-09-09T13:51:36;4.20;;;1.95;;
16029;SDS011;34770;49.272;11.070;2022-09-09T13:54:02;5.60;;;1.73;;
16029;SDS011;34770;49.272;11.070;2022-09-09T13:56:32;5.85;;;1.35;;
16029;SDS011;34770;49.272;11.070;2022-09-09T13:59:02;3.33;;;1.25;;
16029;SDS011;34770;49.272;11.070;2022-09-09T14:01:29;5.60;;;1.40;;
16029;SDS011;34770;49.272;11.070;2022-09-09T14:03:54;3.10;;;1.40;;
16029;SDS011;34770;49.272;11.070;2022-09-09T14:06:20;3.17;;;1.27;;
16029;SDS011;34770;49.272;11.070;2022-09-09T14:08:47;5.53;;;1.55;;
16029;SDS011;34770;49.272;11.070;2022-09-09T14:11:15;5.20;;;1.50;;
16029;SDS011;34770;49.272;11.070;2022-09-09T14:13:40;3.85;;;1.40;;
16029;SDS011;34770;49.272;11.070;2022-09-09T14:16:05;3.78;;;1.65;;
16029;SDS011;34770;49.272;11.070;2022-09-09T14:18:31;3.47;;;1.58;;
16029;SDS011;34770;49.272;11.070;2022-09-09T14:20:56;3.78;;;1.38;;
16029;SDS011;34770;49.272;11.070;2022-09-09T14:23:23;2.10;;;1.20;;
16029;SDS011;34770;49.272;11.070;2022-09-09T14:25:49;5.53;;;1.45;;
16029;SDS011;34770;49.272;11.070;2022-09-09T14:28:15;1.52;;;1.42;;
16029;SDS011;34770;49.272;11.070;2022-09-09T14:30:41;2.88;;;1.38;;
16029;SDS011;34770;49.272;11.070;2022-09-09T14:33:10;3.80;;;2.30;;
16029;SDS011;34770;49.272;11.070;2022-09-09T14:35:36;3.53;;;1.00;;
16029;SDS011;34770;49.272;11.070;2022-09-09T14:38:03;4.45;;;2.05;;
16029;SDS011;34770;49.272;11.070;2022-09-09T14:40:29;3.00;;;1.30;;
16029;SDS011;34770;49.272;11.070;2022-09-09T14:42:55;2.00;;;1.17;;
16029;SDS011;34770;49.272;11.070;2022-09-09T14:45:21;4.30;;;1.90;;
16029;SDS011;34770;49.272;11.070;2022-09-09T14:47:49;6.03;;;1.27;;
16029;SDS011;34770;49.272;11.070;2022-09-09T14:50:16;3.40;;;1.60;;
16029;SDS011;34770;49.272;11.070;2022-09-09T14:52:42;6.10;;;1.58;;
16029;SDS011;34770;49.272;11.070;2022-09-09T14:55:08;3.28;;;1.33;;
16029;SDS011;34770;49.272;11.070;2022-09-09T14:57:33;2.85;;;0.93;;
16029;SDS011;34770;49.272;11.070;2022-09-09T15:00:00;3.03;;;0.95;;
16029;SDS011;34770;49.272;11.070;2022-09-09T15:02:27;5.88;;;1.13;;
16029;SDS011;34770;49.272;11.070;2022-09-09T15:04:54;2.92;;;0.98;;
16029;SDS011;34770;49.272;11.070;2022-09-09T15:07:22;2.55;;;1.10;;
16029;SDS011;34770;49.272;11.070;2022-09-09T15:09:48;1.25;;;0.82;;
16029;SDS011;34770;49.272;11.070;2022-09-09T15:12:14;2.90;;;0.90;;
16029;SDS011;34770;49.272;11.070;2022-09-09T15:14:40;1.85;;;1.10;;
16029;SDS011;34770;49.272;11.070;2022-09-09T15:17:05;1.67;;;0.73;;
16029;SDS011;34770;49.272;11.070;2022-09-09T15:19:31;1.95;;;0.50;;
16029;SDS011;34770;49.272;11.070;2022-09-09T15:21:57;3.70;;;1.17;;
16029;SDS011;34770;49.272;11.070;2022-09-09T15:24:23;3.22;;;1.00;;
16029;SDS011;34770;49.272;11.070;2022-09-09T15:26:48;2.80;;;0.70;;
16029;SDS011;34770;49.272;11.070;2022-09-09T15:29:14;2.58;;;0.80;;
16029;SDS011;34770;49.272;11.070;2022-09-09T15:31:40;2.97;;;0.80;;
16029;SDS011;34770;49.272;11.070;2022-09-09T15:34:06;3.25;;;1.10;;
16029;SDS011;34770;49.272;11.070;2022-09-09T15:36:33;5.20;;;0.80;;
16029;SDS011;34770;49.272;11.070;2022-09-09T15:39:04;1.90;;;0.82;;
16029;SDS011;34770;49.272;11.070;2022-09-09T15:41:30;0.75;;;0.57;;
16029;SDS011;34770;49.272;11.070;2022-09-09T15:43:56;0.70;;;0.55;;
16029;SDS011;34770;49.272;11.070;2022-09-09T15:46:27;3.13;;;0.75;;
16029;SDS011;34770;49.272;11.070;2022-09-09T15:48:55;2.53;;;0.52;;
16029;SDS011;34770;49.272;11.070;2022-09-09T15:51:23;2.47;;;0.57;;
16029;SDS011;34770;49.272;11.070;2022-09-09T15:53:53;1.77;;;0.65;;
16029;SDS011;34770;49.272;11.070;2022-09-09T15:56:20;1.67;;;0.60;;
16029;SDS011;34770;49.272;11.070;2022-09-09T15:58:46;1.65;;;0.60;;
16029;SDS011;34770;49.272;11.070;2022-09-09T16:01:11;2.13;;;0.45;;
16029;SDS011;34770;49.272;11.070;2022-09-09T16:03:41;4.93;;;0.60;;
16029;SDS011;34770;49.272;11.070;2022-09-09T16:06:07;2.13;;;0.50;;
16029;SDS011;34770;49.272;11.070;2022-09-09T16:08:35;0.70;;;0.60;;
16029;SDS011;34770;49.272;11.070;2022-09-09T16:11:09;1.73;;;0.73;;
16029;SDS011;34770;49.272;11.070;2022-09-09T16:13:37;1.55;;;0.60;;
16029;SDS011;34770;49.272;11.070;2022-09-09T16:16:07;1.60;;;0.60;;
16029;SDS011;34770;49.272;11.070;2022-09-09T16:18:44;1.05;;;0.63;;
16029;SDS011;34770;49.272;11.070;2022-09-09T16:21:13;1.65;;;0.98;;
16029;SDS011;34770;49.272;11.070;2022-09-09T16:23:41;1.33;;;0.70;;
16029;SDS011;34770;49.272;11.070;2022-09-09T16:26:08;2.97;;;0.60;;
16029;SDS011;34770;49.272;11.070;2022-09-09T16:28:36;1.15;;;0.82;;
16029;SDS011;34770;49.272;11.070;2022-09-09T16:31:05;1.15;;;1.02;;
16029;SDS011;34770;49.272;11.070;2022-09-09T16:33:31;2.20;;;0.90;;
16029;SDS011;34770;49.272;11.070;2022-09-09T16:35:56;2.55;;;0.88;;
16029;SDS011;34770;49.272;11.070;2022-09-09T16:38:22;3.40;;;0.70;;
16029;SDS011;34770;49.272;11.070;2022-09-09T16:40:47;1.30;;;0.63;;
16029;SDS011;34770;49.272;11.070;2022-09-09T16:43:15;2.13;;;0.80;;
16029;SDS011;34770;49.272;11.070;2022-09-09T16:45:41;2.92;;;0.75;;
16029;SDS011;34770;49.272;11.070;2022-09-09T16:48:07;3.70;;;0.70;;
16029;SDS011;34770;49.272;11.070;2022-09-09T16:50:33;1.85;;;0.80;;
16029;SDS011;34770;49.272;11.070;2022-09-09T16:52:58;5.20;;;0.68;;
16029;SDS011;34770;49.272;11.070;2022-09-09T16:55:23;5.97;;;1.58;;
16029;SDS011;34770;49.272;11.070;2022-09-09T16:57:51;1.20;;;0.65;;
16029;SDS011;34770;49.272;11.070;2022-09-09T17:00:16;2.25;;;1.00;;
16029;SDS011;34770;49.272;11.070;2022-09-09T17:02:42;1.15;;;0.70;;
16029;SDS011;34770;49.272;11.070;2022-09-09T17:05:08;1.48;;;0.68;;
16029;SDS011;34770;49.272;11.070;2022-09-09T17:07:34;2.05;;;1.20;;
16029;SDS011;34770;49.272;11.070;2022-09-09T17:10:00;1.38;;;0.82;;
16029;SDS011;34770;49.272;11.070;2022-09-09T17:12:26;3.40;;;0.80;;
16029;SDS011;34770;49.272;11.070;2022-09-09T17:14:51;6.57;;;0.98;;
16029;SDS011;34770;49.272;11.070;2022-09-09T17:17:17;6.85;;;0.70;;
16029;SDS011;34770;49.272;11.070;2022-09-09T17:19:42;4.30;;;0.90;;
16029;SDS011;34770;49.272;11.070;2022-09-09T17:22:08;1.02;;;0.93;;
16029;SDS011;34770;49.272;11.070;2022-09-09T17:24:33;0.73;;;0.70;;
16029;SDS011;34770;49.272;11.070;2022-09-09T17:26:59;1.90;;;0.70;;
16029;SDS011;34770;49.272;11.070;2022-09-09T17:29:25;1.95;;;0.80;;
16029;SDS011;34770;49.272;11.070;2022-09-09T17:31:50;2.88;;;1.05;;
16029;SDS011;34770;49.272;11.070;2022-09-09T17:34:16;3.35;;;1.10;;
16029;SDS011;34770;49.272;11.070;2022-09-09T17:36:41;0.75;;;0.70;;
16029;SDS011;34770;49.272;11.070;2022-09-09T17:39:07;1.70;;;0.80;;
16029;SDS011;34770;49.272;11.070;2022-09-09T17:41:34;1.98;;;0.80;;
16029;SDS011;34770;49.272;11.070;2022-09-09T17:44:01;0.95;;;0.77;;
16029;SDS011;34770;49.272;11.070;2022-09-09T17:46:28;3.22;;;1.17;;
16029;SDS011;34770;49.272;11.070;2022-09-09T17:48:59;0.65;;;0.63;;
16029;SDS011;34770;49.272;11.070;2022-09-09T17:51:27;7.53;;;1.20;;
16029;SDS011;34770;49.272;11.070;2022-09-09T17:53:55;3.03;;;0.95;;
16029;SDS011;34770;49.272;11.070;2022-09-09T17:56:24;1.10;;;0.82;;
16029;SDS011;34770;49.272;11.070;2022-09-09T17:58:53;2.35;;;1.10;;
16029;SDS011;34770;49.272;11.070;2022-09-09T18:01:20;1.75;;;0.80;;
16029;SDS011;34770;49.272;11.070;2022-09-09T18:03:47;2.03;;;0.95;;
16029;SDS011;34770;49.272;11.070;2022-09-09T18:06:15;1.95;;;1.25;;
16029;SDS011;34770;49.272;11.070;2022-09-09T18:08:46;3.22;;;1.00;;
16029;SDS011;34770;49.272;11.070;2022-09-09T18:11:17;4.93;;;1.27;;
16029;SDS011;34770;49.272;11.070;2022-09-09T18:13:51;2.50;;;1.30;;
16029;SDS011;34770;49.272;11.070;2022-09-09T18:16:18;1.67;;;0.98;;
16029;SDS011;34770;49.272;11.070;2022-09-09T18:18:45;2.35;;;1.10;;
16029;SDS011;34770;49.272;11.070;2022-09-09T18:21:11;4.72;;;1.67;;
16029;SDS011;34770;49.272;11.070;2022-09-09T18:23:38;2.30;;;1.27;;
16029;SDS011;34770;49.272;11.070;2022-09-09T18:26:12;1.00;;;0.77;;
16029;SDS011;34770;49.272;11.070;2022-09-09T18:28:39;3.30;;;0.88;;
16029;SDS011;34770;49.272;11.070;2022-09-09T18:31:10;4.47;;;1.38;;
16029;SDS011;34770;49.272;11.070;2022-09-09T18:33:38;4.93;;;1.35;;
16029;SDS011;34770;49.272;11.070;2022-09-09T18:38:40;4.05;;;1.40;;
16029;SDS011;34770;49.272;11.070;2022-09-09T18:41:16;4.68;;;1.10;;
16029;SDS011;34770;49.272;11.070;2022-09-09T18:43:43;1.83;;;1.08;;
16029;SDS011;34770;49.272;11.070;2022-09-09T18:46:10;2.38;;;1.20;;
16029;SDS011;34770;49.272;11.070;2022-09-09T18:48:35;3.63;;;1.25;;
16029;SDS011;34770;49.272;11.070;2022-09-09T18:51:05;4.43;;;1.42;;
16029;SDS011;34770;49.272;11.070;2022-09-09T18:53:33;2.55;;;1.00;;
16029;SDS011;34770;49.272;11.070;2022-09-09T18:56:00;1.35;;;0.77;;
16029;SDS011;34770;49.272;11.070;2022-09-09T18:58:27;4.72;;;1.20;;
16029;SDS011;34770;49.272;11.070;2022-09-09T19:00:53;1.52;;;0.90;;
16029;SDS011;34770;49.272;11.070;2022-09-09T19:03:20;4.13;;;1.40;;
16029;SDS011;34770;49.272;11.070;2022-09-09T19:05:46;1.00;;;0.90;;
16029;SDS011;34770;49.272;11.070;2022-09-09T19:08:11;1.42;;;1.00;;
16029;SDS011;34770;49.272;11.070;2022-09-09T19:10:37;3.33;;;1.35;;
16029;SDS011;34770;49.272;11.070;2022-09-09T19:13:02;6.38;;;1.65;;
16029;SDS011;34770;49.272;11.070;2022-09-09T19:15:29;4.07;;;1.20;;
16029;SDS011;34770;49.272;11.070;2022-09-09T19:17:57;0.90;;;0.90;;
16029;SDS011;34770;49.272;11.070;2022-09-09T19:20:23;0.88;;;0.88;;
16029;SDS011;34770;49.272;11.070;2022-09-09T19:22:48;4.43;;;1.13;;
16029;SDS011;34770;49.272;11.070;2022-09-09T19:25:14;4.25;;;1.10;;
16029;SDS011;34770;49.272;11.070;2022-09-09T19:27:40;6.95;;;0.90;;
16029;SDS011;34770;49.272;11.070;2022-09-09T19:30:09;1.70;;;1.15;;
16029;SDS011;34770;49.272;11.070;2022-09-09T19:32:35;0.95;;;0.90;;
16029;SDS011;34770;49.272;11.070;2022-09-09T19:35:03;0.88;;;0.88;;
16029;SDS011;34770;49.272;11.070;2022-09-09T19:37:29;2.08;;;0.90;;
16029;SDS011;34770;49.272;11.070;2022-09-09T19:39:56;2.03;;;1.00;;
16029;SDS011;34770;49.272;11.070;2022-09-09T19:42:22;3.00;;;1.08;;
16029;SDS011;34770;49.272;11.070;2022-09-09T19:44:47;5.20;;;0.93;;
16029;SDS011;34770;49.272;11.070;2022-09-09T19:47:14;3.22;;;0.93;;
16029;SDS011;34770;49.272;11.070;2022-09-09T19:49:39;2.13;;;1.40;;
16029;SDS011;34770;49.272;11.070;2022-09-09T19:52:05;4.03;;;1.00;;
16029;SDS011;34770;49.272;11.070;2022-09-09T19:54:31;1.23;;;1.20;;
16029;SDS011;34770;49.272;11.070;2022-09-09T19:56:57;1.45;;;0.80;;
16029;SDS011;34770;49.272;11.070;2022-09-09T19:59:23;1.45;;;0.95;;
16029;SDS011;34770;49.272;11.070;2022-09-09T20:01:49;1.58;;;1.15;;
16029;SDS011;34770;49.272;11.070;2022-09-09T20:04:15;1.30;;;1.00;;
16029;SDS011;34770;49.272;11.070;2022-09-09T20:06:42;1.15;;;1.00;;
16029;SDS011;34770;49.272;11.070;2022-09-09T20:09:09;4.85;;;1.30;;
16029;SDS011;34770;49.272;11.070;2022-09-09T20:11:38;1.20;;;1.10;;
16029;SDS011;34770;49.272;11.070;2022-09-09T20:14:04;1.00;;;1.00;;
16029;SDS011;34770;49.272;11.070;2022-09-09T20:16:30;2.42;;;1.10;;
16029;SDS011;34770;49.272;11.070;2022-09-09T20:18:58;0.88;;;0.82;;
16029;SDS011;34770;49.272;11.070;2022-09-09T20:21:27;1.00;;;0.90;;
16029;SDS011;34770;49.272;11.070;2022-09-09T20:24:00;3.47;;;0.98;;
16029;SDS011;34770;49.272;11.070;2022-09-09T20:26:28;1.00;;;0.90;;
16029;SDS011;34770;49.272;11.070;2022-09-09T20:28:59;5.00;;;1.23;;
16029;SDS011;34770;49.272;11.070;2022-09-09T20:31:29;1.48;;;1.08;;
16029;SDS011;34770;49.272;11.070;2022-09-09T20:33:55;2.67;;;0.98;;
16029;SDS011;34770;49.272;11.070;2022-09-09T20:38:51;1.90;;;1.10;;
16029;SDS011;34770;49.272;11.070;2022-09-09T20:41:19;1.63;;;1.10;;
16029;SDS011;34770;49.272;11.070;2022-09-09T20:46:16;1.67;;;1.17;;
16029;SDS011;34770;49.272;11.070;2022-09-09T20:48:46;4.63;;;1.30;;
16029;SDS011;34770;49.272;11.070;2022-09-09T20:51:15;4.28;;;1.40;;
16029;SDS011;34770;49.272;11.070;2022-09-09T20:53:41;3.17;;;1.52;;
16029;SDS011;34770;49.272;11.070;2022-09-09T20:56:09;1.30;;;1.20;;
16029;SDS011;34770;49.272;11.070;2022-09-09T20:58:34;5.13;;;1.83;;
16029;SDS011;34770;49.272;11.070;2022-09-09T21:01:00;1.85;;;1.27;;
16029;SDS011;34770;49.272;11.070;2022-09-09T21:03:28;2.22;;;1.38;;
16029;SDS011;34770;49.272;11.070;2022-09-09T21:05:56;1.00;;;0.90;;
16029;SDS011;34770;49.272;11.070;2022-09-09T21:08:28;1.50;;;1.40;;